sensor_id;sensor_type;location;lat;lon;timestamp;temperature;humidity
17442;DHT22;8838;50.144;8.176;2023-06-22T00:02:18;20.50;99.90
17442;DHT22;8838;50.144;8.176;2023-06-22T00:04:45;20.30;99.90
17442;DHT22;8838;50.144;8.176;2023-06-22T00:07:11;20.30;99.90
17442;DHT22;8838;50.144;8.176;2023-06-22T00:09:39;20.20;99.90
17442;DHT22;8838;50.144;8.176;2023-06-22T00:12:08;20.20;99.90
17442;DHT22;8838;50.144;8.176;2023-06-22T00:14:35;20.20;99.90
17442;DHT22;8838;50.144;8.176;2023-06-22T00:17:02;20.10;99.90
17442;DHT22;8838;50.144;8.176;2023-06-22T00:19:29;20.10;99.90
17442;DHT22;8838;50.144;8.176;2023-06-22T00:21:56;20.10;99.90
17442;DHT22;8838;50.144;8.176;2023-06-22T00:24:25;20.10;99.90
17442;DHT22;8838;50.144;8.176;2023-06-22T00:26:52;20.00;99.90
17442;DHT22;8838;50.144;8.176;2023-06-22T00:29:21;20.00;99.90
17442;DHT22;8838;50.144;8.176;2023-06-22T00:31:48;19.90;99.90
17442;DHT22;8838;50.144;8.176;2023-06-22T00:34:15;19.80;99.90
17442;DHT22;8838;50.144;8.176;2023-06-22T00:36:42;19.80;99.90
17442;DHT22;8838;50.144;8.176;2023-06-22T00:39:09;19.80;99.90
17442;DHT22;8838;50.144;8.176;2023-06-22T00:41:36;19.90;99.90
17442;DHT22;8838;50.144;8.176;2023-06-22T00:44:03;20.00;99.90
17442;DHT22;8838;50.144;8.176;2023-06-22T00:46:31;20.10;99.90
17442;DHT22;8838;50.144;8.176;2023-06-22T00:48:58;20.10;99.90
17442;DHT22;8838;50.144;8.176;2023-06-22T00:51:28;20.00;99.90
17442;DHT22;8838;50.144;8.176;2023-06-22T00:53:54;19.90;99.90
17442;DHT22;8838;50.144;8.176;2023-06-22T00:56:22;19.90;99.90
17442;DHT22;8838;50.144;8.176;2023-06-22T00:58:50;19.80;99.90
17442;DHT22;8838;50.144;8.176;2023-06-22T01:01:19;19.70;99.90
17442;DHT22;8838;50.144;8.176;2023-06-22T01:03:50;19.70;99.90
17442;DHT22;8838;50.144;8.176;2023-06-22T01:06:22;19.70;99.90
17442;DHT22;8838;50.144;8.176;2023-06-22T01:08:59;19.80;99.90
17442;DHT22;8838;50.144;8.176;2023-06-22T01:11:32;19.60;99.90
17442;DHT22;8838;50.144;8.176;2023-06-22T01:14:06;19.40;99.90
17442;DHT22;8838;50.144;8.176;2023-06-22T01:16:36;19.30;99.90
17442;DHT22;8838;50.144;8.176;2023-06-22T01:19:20;19.10;99.90
17442;DHT22;8838;50.144;8.176;2023-06-22T01:21:56;19.10;99.90
17442;DHT22;8838;50.144;8.176;2023-06-22T01:24:32;19.10;99.90
17442;DHT22;8838;50.144;8.176;2023-06-22T01:27:10;19.10;99.90
17442;DHT22;8838;50.144;8.176;2023-06-22T01:29:42;19.30;99.90
17442;DHT22;8838;50.144;8.176;2023-06-22T01:32:10;19.30;99.90
17442;DHT22;8838;50.144;8.176;2023-06-22T01:34:40;19.40;99.90
17442;DHT22;8838;50.144;8.176;2023-06-22T01:37:08;19.40;99.90
17442;DHT22;8838;50.144;8.176;2023-06-22T01:39:35;19.40;99.90
17442;DHT22;8838;50.144;8.176;2023-06-22T01:42:03;19.50;99.90
17442;DHT22;8838;50.144;8.176;2023-06-22T01:44:32;19.50;99.90
17442;DHT22;8838;50.144;8.176;2023-06-22T01:47:01;19.50;99.90
17442;DHT22;8838;50.144;8.176;2023-06-22T01:49:28;19.60;99.90
17442;DHT22;8838;50.144;8.176;2023-06-22T01:51:55;19.60;99.90
17442;DHT22;8838;50.144;8.176;2023-06-22T01:54:22;19.60;99.90
17442;DHT22;8838;50.144;8.176;2023-06-22T01:56:49;19.40;99.90
17442;DHT22;8838;50.144;8.176;2023-06-22T01:59:21;19.30;99.90
17442;DHT22;8838;50.144;8.176;2023-06-22T02:01:57;19.20;99.90
17442;DHT22;8838;50.144;8.176;2023-06-22T02:04:33;19.20;99.90
17442;DHT22;8838;50.144;8.176;2023-06-22T02:07:05;19.20;99.90
17442;DHT22;8838;50.144;8.176;2023-06-22T02:09:33;19.30;99.90
17442;DHT22;8838;50.144;8.176;2023-06-22T02:12:02;19.30;99.90
17442;DHT22;8838;50.144;8.176;2023-06-22T02:14:30;19.40;99.90
17442;DHT22;8838;50.144;8.176;2023-06-22T02:16:58;19.40;99.90
17442;DHT22;8838;50.144;8.176;2023-06-22T02:19:27;19.40;99.90
17442;DHT22;8838;50.144;8.176;2023-06-22T02:21:58;19.40;99.90
17442;DHT22;8838;50.144;8.176;2023-06-22T02:24:25;19.40;99.90
17442;DHT22;8838;50.144;8.176;2023-06-22T02:26:52;19.40;99.90
17442;DHT22;8838;50.144;8.176;2023-06-22T02:29:18;19.30;99.90
17442;DHT22;8838;50.144;8.176;2023-06-22T02:31:45;19.40;99.90
17442;DHT22;8838;50.144;8.176;2023-06-22T02:34:12;19.40;99.90
17442;DHT22;8838;50.144;8.176;2023-06-22T02:36:45;19.30;99.90
17442;DHT22;8838;50.144;8.176;2023-06-22T02:39:16;19.30;99.90
17442;DHT22;8838;50.144;8.176;2023-06-22T02:41:43;18.90;99.90
17442;DHT22;8838;50.144;8.176;2023-06-22T02:44:10;18.80;99.90
17442;DHT22;8838;50.144;8.176;2023-06-22T02:46:37;18.80;99.90
17442;DHT22;8838;50.144;8.176;2023-06-22T02:49:03;18.80;99.90
17442;DHT22;8838;50.144;8.176;2023-06-22T02:51:32;18.90;99.90
17442;DHT22;8838;50.144;8.176;2023-06-22T02:54:01;19.00;99.90
17442;DHT22;8838;50.144;8.176;2023-06-22T02:56:28;19.00;99.90
17442;DHT22;8838;50.144;8.176;2023-06-22T02:58:56;19.00;99.90
17442;DHT22;8838;50.144;8.176;2023-06-22T03:01:26;19.00;99.90
17442;DHT22;8838;50.144;8.176;2023-06-22T03:03:55;19.00;99.90
17442;DHT22;8838;50.144;8.176;2023-06-22T03:06:22;19.00;99.90
17442;DHT22;8838;50.144;8.176;2023-06-22T03:08:59;19.00;99.90
17442;DHT22;8838;50.144;8.176;2023-06-22T03:11:27;19.00;99.90
17442;DHT22;8838;50.144;8.176;2023-06-22T03:13:54;19.00;99.90
17442;DHT22;8838;50.144;8.176;2023-06-22T03:16:21;19.00;99.90
17442;DHT22;8838;50.144;8.176;2023-06-22T03:18:47;19.00;99.90
17442;DHT22;8838;50.144;8.176;2023-06-22T03:21:14;19.00;99.90
17442;DHT22;8838;50.144;8.176;2023-06-22T03:23:42;19.00;99.90
17442;DHT22;8838;50.144;8.176;2023-06-22T03:26:09;19.00;99.90
17442;DHT22;8838;50.144;8.176;2023-06-22T03:28:37;19.00;99.90
17442;DHT22;8838;50.144;8.176;2023-06-22T03:31:04;19.00;99.90
17442;DHT22;8838;50.144;8.176;2023-06-22T03:33:32;19.10;99.90
17442;DHT22;8838;50.144;8.176;2023-06-22T03:36:02;19.10;99.90
17442;DHT22;8838;50.144;8.176;2023-06-22T03:38:28;19.00;99.90
17442;DHT22;8838;50.144;8.176;2023-06-22T03:40:55;19.00;99.90
17442;DHT22;8838;50.144;8.176;2023-06-22T03:43:23;19.00;99.90
17442;DHT22;8838;50.144;8.176;2023-06-22T03:45:51;18.90;99.90
17442;DHT22;8838;50.144;8.176;2023-06-22T03:48:18;18.90;99.90
17442;DHT22;8838;50.144;8.176;2023-06-22T03:50:44;18.90;99.90
17442;DHT22;8838;50.144;8.176;2023-06-22T03:53:11;18.90;99.90
17442;DHT22;8838;50.144;8.176;2023-06-22T03:55:45;19.00;99.90
17442;DHT22;8838;50.144;8.176;2023-06-22T03:58:14;19.00;99.90
17442;DHT22;8838;50.144;8.176;2023-06-22T04:00:40;19.10;99.90
17442;DHT22;8838;50.144;8.176;2023-06-22T04:03:10;19.10;99.90
17442;DHT22;8838;50.144;8.176;2023-06-22T04:05:38;19.00;99.90
17442;DHT22;8838;50.144;8.176;2023-06-22T04:08:05;18.90;99.90
17442;DHT22;8838;50.144;8.176;2023-06-22T04:10:32;18.80;99.90
17442;DHT22;8838;50.144;8.176;2023-06-22T04:12:59;18.80;99.90
17442;DHT22;8838;50.144;8.176;2023-06-22T04:15:26;18.80;99.90
17442;DHT22;8838;50.144;8.176;2023-06-22T04:17:56;18.90;99.90
17442;DHT22;8838;50.144;8.176;2023-06-22T04:20:24;18.90;99.90
17442;DHT22;8838;50.144;8.176;2023-06-22T04:22:52;18.90;99.90
17442;DHT22;8838;50.144;8.176;2023-06-22T04:25:19;19.00;99.90
17442;DHT22;8838;50.144;8.176;2023-06-22T04:27:46;18.90;99.90
17442;DHT22;8838;50.144;8.176;2023-06-22T04:30:14;19.00;99.90
17442;DHT22;8838;50.144;8.176;2023-06-22T04:32:42;19.00;99.90
17442;DHT22;8838;50.144;8.176;2023-06-22T04:35:09;19.00;99.90
17442;DHT22;8838;50.144;8.176;2023-06-22T04:37:37;19.10;99.90
17442;DHT22;8838;50.144;8.176;2023-06-22T04:40:06;19.10;99.90
17442;DHT22;8838;50.144;8.176;2023-06-22T04:42:35;19.10;99.90
17442;DHT22;8838;50.144;8.176;2023-06-22T04:45:02;19.00;99.90
17442;DHT22;8838;50.144;8.176;2023-06-22T04:47:30;19.10;99.90
17442;DHT22;8838;50.144;8.176;2023-06-22T04:49:56;19.10;99.90
17442;DHT22;8838;50.144;8.176;2023-06-22T04:52:23;19.10;99.90
17442;DHT22;8838;50.144;8.176;2023-06-22T04:54:51;19.10;99.90
17442;DHT22;8838;50.144;8.176;2023-06-22T04:57:21;19.10;99.90
17442;DHT22;8838;50.144;8.176;2023-06-22T04:59:58;19.10;99.90
17442;DHT22;8838;50.144;8.176;2023-06-22T05:02:42;19.10;99.90
17442;DHT22;8838;50.144;8.176;2023-06-22T05:05:09;19.20;99.90
17442;DHT22;8838;50.144;8.176;2023-06-22T05:07:39;19.20;99.90
17442;DHT22;8838;50.144;8.176;2023-06-22T05:10:10;19.20;99.90
17442;DHT22;8838;50.144;8.176;2023-06-22T05:12:39;19.20;99.90
17442;DHT22;8838;50.144;8.176;2023-06-22T05:15:07;19.30;99.90
17442;DHT22;8838;50.144;8.176;2023-06-22T05:17:34;19.30;99.90
17442;DHT22;8838;50.144;8.176;2023-06-22T05:20:02;19.30;99.90
17442;DHT22;8838;50.144;8.176;2023-06-22T05:22:31;19.30;99.90
17442;DHT22;8838;50.144;8.176;2023-06-22T05:24:58;19.40;99.90
17442;DHT22;8838;50.144;8.176;2023-06-22T05:27:26;19.40;99.90
17442;DHT22;8838;50.144;8.176;2023-06-22T05:29:53;19.40;99.90
17442;DHT22;8838;50.144;8.176;2023-06-22T05:32:20;19.40;99.90
17442;DHT22;8838;50.144;8.176;2023-06-22T05:34:47;19.40;99.90
17442;DHT22;8838;50.144;8.176;2023-06-22T05:37:14;19.40;99.90
17442;DHT22;8838;50.144;8.176;2023-06-22T05:39:41;19.40;99.90
17442;DHT22;8838;50.144;8.176;2023-06-22T05:42:08;19.50;99.90
17442;DHT22;8838;50.144;8.176;2023-06-22T05:44:38;19.60;99.90
17442;DHT22;8838;50.144;8.176;2023-06-22T05:47:06;19.60;99.90
17442;DHT22;8838;50.144;8.176;2023-06-22T05:49:35;19.70;99.90
17442;DHT22;8838;50.144;8.176;2023-06-22T05:52:02;19.80;99.90
17442;DHT22;8838;50.144;8.176;2023-06-22T05:54:29;19.90;99.90
17442;DHT22;8838;50.144;8.176;2023-06-22T05:56:56;20.00;99.90
17442;DHT22;8838;50.144;8.176;2023-06-22T05:59:25;20.00;99.90
17442;DHT22;8838;50.144;8.176;2023-06-22T06:01:53;20.10;99.90
17442;DHT22;8838;50.144;8.176;2023-06-22T06:04:20;20.20;99.90
17442;DHT22;8838;50.144;8.176;2023-06-22T06:06:47;20.30;99.90
17442;DHT22;8838;50.144;8.176;2023-06-22T06:09:14;20.30;99.90
17442;DHT22;8838;50.144;8.176;2023-06-22T06:11:41;20.30;99.90
17442;DHT22;8838;50.144;8.176;2023-06-22T06:14:09;20.50;99.90
17442;DHT22;8838;50.144;8.176;2023-06-22T06:16:36;20.60;99.90
17442;DHT22;8838;50.144;8.176;2023-06-22T06:19:04;20.80;99.90
17442;DHT22;8838;50.144;8.176;2023-06-22T06:21:32;20.90;99.90
17442;DHT22;8838;50.144;8.176;2023-06-22T06:23:58;21.00;99.90
17442;DHT22;8838;50.144;8.176;2023-06-22T06:26:25;21.10;99.90
17442;DHT22;8838;50.144;8.176;2023-06-22T06:28:55;21.20;99.90
17442;DHT22;8838;50.144;8.176;2023-06-22T06:31:22;21.40;99.90
17442;DHT22;8838;50.144;8.176;2023-06-22T06:33:49;21.50;99.90
17442;DHT22;8838;50.144;8.176;2023-06-22T06:36:17;21.60;99.90
17442;DHT22;8838;50.144;8.176;2023-06-22T06:38:44;21.70;99.90
17442;DHT22;8838;50.144;8.176;2023-06-22T06:41:12;21.80;99.90
17442;DHT22;8838;50.144;8.176;2023-06-22T06:43:39;21.90;99.90
17442;DHT22;8838;50.144;8.176;2023-06-22T06:46:07;22.00;99.90
17442;DHT22;8838;50.144;8.176;2023-06-22T06:48:34;22.10;99.90
17442;DHT22;8838;50.144;8.176;2023-06-22T06:51:01;22.30;99.90
17442;DHT22;8838;50.144;8.176;2023-06-22T06:53:29;22.40;99.90
17442;DHT22;8838;50.144;8.176;2023-06-22T06:55:56;22.60;99.90
17442;DHT22;8838;50.144;8.176;2023-06-22T06:58:23;22.70;99.90
17442;DHT22;8838;50.144;8.176;2023-06-22T07:00:50;22.90;99.90
17442;DHT22;8838;50.144;8.176;2023-06-22T07:03:17;23.00;99.90
17442;DHT22;8838;50.144;8.176;2023-06-22T07:05:43;23.20;99.90
17442;DHT22;8838;50.144;8.176;2023-06-22T07:08:10;23.40;99.90
17442;DHT22;8838;50.144;8.176;2023-06-22T07:10:38;23.50;99.90
17442;DHT22;8838;50.144;8.176;2023-06-22T07:13:05;23.70;99.90
17442;DHT22;8838;50.144;8.176;2023-06-22T07:15:32;23.90;99.90
17442;DHT22;8838;50.144;8.176;2023-06-22T07:17:59;24.00;99.90
17442;DHT22;8838;50.144;8.176;2023-06-22T07:20:26;24.30;99.90
17442;DHT22;8838;50.144;8.176;2023-06-22T07:22:53;24.50;99.90
17442;DHT22;8838;50.144;8.176;2023-06-22T07:25:20;24.60;99.90
17442;DHT22;8838;50.144;8.176;2023-06-22T07:27:58;24.80;99.90
17442;DHT22;8838;50.144;8.176;2023-06-22T07:30:26;25.10;99.90
17442;DHT22;8838;50.144;8.176;2023-06-22T07:32:53;25.20;99.90
17442;DHT22;8838;50.144;8.176;2023-06-22T07:35:20;25.30;99.90
17442;DHT22;8838;50.144;8.176;2023-06-22T07:37:47;25.40;99.90
17442;DHT22;8838;50.144;8.176;2023-06-22T07:40:14;25.50;99.90
17442;DHT22;8838;50.144;8.176;2023-06-22T07:42:41;25.60;99.90
17442;DHT22;8838;50.144;8.176;2023-06-22T07:45:12;25.90;99.90
17442;DHT22;8838;50.144;8.176;2023-06-22T07:47:39;26.00;99.90
17442;DHT22;8838;50.144;8.176;2023-06-22T07:50:06;26.20;99.90
17442;DHT22;8838;50.144;8.176;2023-06-22T07:52:33;26.30;99.90
17442;DHT22;8838;50.144;8.176;2023-06-22T07:55:00;26.10;99.90
17442;DHT22;8838;50.144;8.176;2023-06-22T07:57:27;26.40;99.90
17442;DHT22;8838;50.144;8.176;2023-06-22T07:59:59;26.50;99.90
17442;DHT22;8838;50.144;8.176;2023-06-22T08:02:27;26.80;99.90
17442;DHT22;8838;50.144;8.176;2023-06-22T08:04:54;27.20;99.90
17442;DHT22;8838;50.144;8.176;2023-06-22T08:07:21;27.60;99.90
17442;DHT22;8838;50.144;8.176;2023-06-22T08:09:48;27.60;99.90
17442;DHT22;8838;50.144;8.176;2023-06-22T08:12:15;27.80;99.90
17442;DHT22;8838;50.144;8.176;2023-06-22T08:14:43;27.40;99.90
17442;DHT22;8838;50.144;8.176;2023-06-22T08:17:11;27.50;99.90
17442;DHT22;8838;50.144;8.176;2023-06-22T08:19:40;27.90;99.90
17442;DHT22;8838;50.144;8.176;2023-06-22T08:22:07;28.50;99.90
17442;DHT22;8838;50.144;8.176;2023-06-22T08:24:34;28.80;99.90
17442;DHT22;8838;50.144;8.176;2023-06-22T08:27:01;29.30;99.90
17442;DHT22;8838;50.144;8.176;2023-06-22T08:29:27;29.40;99.90
17442;DHT22;8838;50.144;8.176;2023-06-22T08:31:54;29.20;99.90
17442;DHT22;8838;50.144;8.176;2023-06-22T08:34:21;29.20;99.90
17442;DHT22;8838;50.144;8.176;2023-06-22T08:36:50;29.10;99.90
17442;DHT22;8838;50.144;8.176;2023-06-22T08:39:18;28.50;99.90
17442;DHT22;8838;50.144;8.176;2023-06-22T08:41:45;28.80;99.90
17442;DHT22;8838;50.144;8.176;2023-06-22T08:44:12;29.20;99.90
17442;DHT22;8838;50.144;8.176;2023-06-22T08:46:39;29.70;99.90
17442;DHT22;8838;50.144;8.176;2023-06-22T08:49:07;29.90;99.90
17442;DHT22;8838;50.144;8.176;2023-06-22T08:51:35;30.20;99.90
17442;DHT22;8838;50.144;8.176;2023-06-22T08:54:03;30.30;99.90
17442;DHT22;8838;50.144;8.176;2023-06-22T08:56:30;29.90;99.90
17442;DHT22;8838;50.144;8.176;2023-06-22T08:58:57;29.50;99.90
17442;DHT22;8838;50.144;8.176;2023-06-22T09:01:24;29.60;99.90
17442;DHT22;8838;50.144;8.176;2023-06-22T09:03:50;29.90;99.90
17442;DHT22;8838;50.144;8.176;2023-06-22T09:06:23;29.90;99.90
17442;DHT22;8838;50.144;8.176;2023-06-22T09:08:50;29.90;99.90
17442;DHT22;8838;50.144;8.176;2023-06-22T09:11:18;29.20;99.90
17442;DHT22;8838;50.144;8.176;2023-06-22T09:13:45;28.70;99.90
17442;DHT22;8838;50.144;8.176;2023-06-22T09:16:12;28.10;99.90
17442;DHT22;8838;50.144;8.176;2023-06-22T09:18:39;28.00;99.90
17442;DHT22;8838;50.144;8.176;2023-06-22T09:21:06;28.00;99.90
17442;DHT22;8838;50.144;8.176;2023-06-22T09:23:33;28.70;99.90
17442;DHT22;8838;50.144;8.176;2023-06-22T09:26:00;29.40;99.90
17442;DHT22;8838;50.144;8.176;2023-06-22T09:28:29;30.10;99.90
17442;DHT22;8838;50.144;8.176;2023-06-22T09:30:56;30.70;99.90
17442;DHT22;8838;50.144;8.176;2023-06-22T09:33:24;30.90;99.90
17442;DHT22;8838;50.144;8.176;2023-06-22T09:35:51;31.00;99.90
17442;DHT22;8838;50.144;8.176;2023-06-22T09:38:18;30.80;99.90
17442;DHT22;8838;50.144;8.176;2023-06-22T09:40:45;30.40;99.90
17442;DHT22;8838;50.144;8.176;2023-06-22T09:43:12;30.00;99.90
17442;DHT22;8838;50.144;8.176;2023-06-22T09:45:40;29.50;99.90
17442;DHT22;8838;50.144;8.176;2023-06-22T09:48:07;28.60;99.90
17442;DHT22;8838;50.144;8.176;2023-06-22T09:50:35;28.30;99.90
17442;DHT22;8838;50.144;8.176;2023-06-22T09:53:02;28.50;99.90
17442;DHT22;8838;50.144;8.176;2023-06-22T09:55:29;28.40;99.90
17442;DHT22;8838;50.144;8.176;2023-06-22T09:57:55;28.60;99.90
17442;DHT22;8838;50.144;8.176;2023-06-22T10:00:22;28.70;99.90
17442;DHT22;8838;50.144;8.176;2023-06-22T10:02:50;29.20;99.90
17442;DHT22;8838;50.144;8.176;2023-06-22T10:05:19;29.70;99.90
17442;DHT22;8838;50.144;8.176;2023-06-22T10:07:46;29.80;99.90
17442;DHT22;8838;50.144;8.176;2023-06-22T10:10:13;30.10;99.90
17442;DHT22;8838;50.144;8.176;2023-06-22T10:12:46;30.60;99.90
17442;DHT22;8838;50.144;8.176;2023-06-22T10:15:14;30.80;99.90
17442;DHT22;8838;50.144;8.176;2023-06-22T10:17:41;30.40;99.90
17442;DHT22;8838;50.144;8.176;2023-06-22T10:20:10;30.70;99.90
17442;DHT22;8838;50.144;8.176;2023-06-22T10:22:40;31.00;99.90
17442;DHT22;8838;50.144;8.176;2023-06-22T10:25:08;30.20;99.90
17442;DHT22;8838;50.144;8.176;2023-06-22T10:27:35;29.30;99.90
17442;DHT22;8838;50.144;8.176;2023-06-22T10:30:06;29.10;99.90
17442;DHT22;8838;50.144;8.176;2023-06-22T10:32:33;29.20;99.90
17442;DHT22;8838;50.144;8.176;2023-06-22T10:35:00;29.80;99.90
17442;DHT22;8838;50.144;8.176;2023-06-22T10:37:28;29.90;99.90
17442;DHT22;8838;50.144;8.176;2023-06-22T10:39:55;29.70;99.90
17442;DHT22;8838;50.144;8.176;2023-06-22T10:42:21;29.30;99.90
17442;DHT22;8838;50.144;8.176;2023-06-22T10:44:48;29.40;99.90
17442;DHT22;8838;50.144;8.176;2023-06-22T10:47:15;29.40;99.90
17442;DHT22;8838;50.144;8.176;2023-06-22T10:49:42;30.00;99.90
17442;DHT22;8838;50.144;8.176;2023-06-22T10:52:09;30.20;99.90
17442;DHT22;8838;50.144;8.176;2023-06-22T10:54:37;30.20;99.90
17442;DHT22;8838;50.144;8.176;2023-06-22T10:57:04;30.40;99.90
17442;DHT22;8838;50.144;8.176;2023-06-22T10:59:31;30.40;99.90
17442;DHT22;8838;50.144;8.176;2023-06-22T11:01:58;30.30;99.90
17442;DHT22;8838;50.144;8.176;2023-06-22T11:04:25;30.50;99.90
17442;DHT22;8838;50.144;8.176;2023-06-22T11:06:52;30.60;99.90
17442;DHT22;8838;50.144;8.176;2023-06-22T11:09:19;30.30;99.90
17442;DHT22;8838;50.144;8.176;2023-06-22T11:11:48;30.40;99.90
17442;DHT22;8838;50.144;8.176;2023-06-22T11:14:18;30.50;99.90
17442;DHT22;8838;50.144;8.176;2023-06-22T11:16:45;31.00;99.90
17442;DHT22;8838;50.144;8.176;2023-06-22T11:19:12;31.30;99.90
17442;DHT22;8838;50.144;8.176;2023-06-22T11:21:39;31.40;99.90
17442;DHT22;8838;50.144;8.176;2023-06-22T11:24:06;31.40;99.90
17442;DHT22;8838;50.144;8.176;2023-06-22T11:26:33;31.90;99.90
17442;DHT22;8838;50.144;8.176;2023-06-22T11:29:02;32.40;99.90
17442;DHT22;8838;50.144;8.176;2023-06-22T11:31:30;32.90;99.90
17442;DHT22;8838;50.144;8.176;2023-06-22T11:33:57;33.00;99.90
17442;DHT22;8838;50.144;8.176;2023-06-22T11:36:25;32.50;99.90
17442;DHT22;8838;50.144;8.176;2023-06-22T11:38:53;32.70;99.90
17442;DHT22;8838;50.144;8.176;2023-06-22T11:41:20;32.50;99.90
17442;DHT22;8838;50.144;8.176;2023-06-22T11:43:47;32.60;99.90
17442;DHT22;8838;50.144;8.176;2023-06-22T11:46:15;33.00;99.90
17442;DHT22;8838;50.144;8.176;2023-06-22T11:48:42;33.40;99.90
17442;DHT22;8838;50.144;8.176;2023-06-22T11:51:08;33.60;99.90
17442;DHT22;8838;50.144;8.176;2023-06-22T11:53:35;33.10;99.90
17442;DHT22;8838;50.144;8.176;2023-06-22T11:56:02;33.10;99.90
17442;DHT22;8838;50.144;8.176;2023-06-22T11:58:29;32.70;99.90
17442;DHT22;8838;50.144;8.176;2023-06-22T12:00:56;32.70;99.90
17442;DHT22;8838;50.144;8.176;2023-06-22T12:03:24;32.60;99.90
17442;DHT22;8838;50.144;8.176;2023-06-22T12:05:51;32.50;99.90
17442;DHT22;8838;50.144;8.176;2023-06-22T12:08:18;32.30;99.90
17442;DHT22;8838;50.144;8.176;2023-06-22T12:10:45;32.20;99.90
17442;DHT22;8838;50.144;8.176;2023-06-22T12:13:11;32.20;99.90
17442;DHT22;8838;50.144;8.176;2023-06-22T12:15:41;32.20;99.90
17442;DHT22;8838;50.144;8.176;2023-06-22T12:18:08;32.10;99.90
17442;DHT22;8838;50.144;8.176;2023-06-22T12:20:36;31.80;99.90
17442;DHT22;8838;50.144;8.176;2023-06-22T12:23:03;32.00;99.90
17442;DHT22;8838;50.144;8.176;2023-06-22T12:25:30;32.20;99.90
17442;DHT22;8838;50.144;8.176;2023-06-22T12:27:57;32.20;99.90
17442;DHT22;8838;50.144;8.176;2023-06-22T12:30:24;32.10;99.90
17442;DHT22;8838;50.144;8.176;2023-06-22T12:32:51;31.80;99.90
17442;DHT22;8838;50.144;8.176;2023-06-22T12:35:18;31.90;99.90
17442;DHT22;8838;50.144;8.176;2023-06-22T12:37:46;31.80;99.90
17442;DHT22;8838;50.144;8.176;2023-06-22T12:40:13;32.20;99.90
17442;DHT22;8838;50.144;8.176;2023-06-22T12:42:40;32.10;99.90
17442;DHT22;8838;50.144;8.176;2023-06-22T12:45:08;32.20;99.90
17442;DHT22;8838;50.144;8.176;2023-06-22T12:47:35;32.10;99.90
17442;DHT22;8838;50.144;8.176;2023-06-22T12:50:02;32.20;99.90
17442;DHT22;8838;50.144;8.176;2023-06-22T12:52:30;32.40;99.90
17442;DHT22;8838;50.144;8.176;2023-06-22T12:54:58;32.40;99.90
17442;DHT22;8838;50.144;8.176;2023-06-22T12:57:26;32.90;99.90
17442;DHT22;8838;50.144;8.176;2023-06-22T12:59:53;32.90;99.90
17442;DHT22;8838;50.144;8.176;2023-06-22T13:02:20;32.70;99.90
17442;DHT22;8838;50.144;8.176;2023-06-22T13:04:50;32.80;99.90
17442;DHT22;8838;50.144;8.176;2023-06-22T13:07:17;32.50;99.90
17442;DHT22;8838;50.144;8.176;2023-06-22T13:09:43;32.30;99.90
17442;DHT22;8838;50.144;8.176;2023-06-22T13:12:13;32.10;99.90
17442;DHT22;8838;50.144;8.176;2023-06-22T13:14:40;32.10;99.90
17442;DHT22;8838;50.144;8.176;2023-06-22T13:17:08;32.10;99.90
17442;DHT22;8838;50.144;8.176;2023-06-22T13:19:35;31.80;99.90
17442;DHT22;8838;50.144;8.176;2023-06-22T13:22:02;31.90;99.90
17442;DHT22;8838;50.144;8.176;2023-06-22T13:24:29;32.20;99.90
17442;DHT22;8838;50.144;8.176;2023-06-22T13:26:56;32.20;99.90
17442;DHT22;8838;50.144;8.176;2023-06-22T13:29:24;32.10;99.90
17442;DHT22;8838;50.144;8.176;2023-06-22T13:31:51;32.20;99.90
17442;DHT22;8838;50.144;8.176;2023-06-22T13:34:17;32.20;99.90
17442;DHT22;8838;50.144;8.176;2023-06-22T13:36:44;31.80;99.90
17442;DHT22;8838;50.144;8.176;2023-06-22T13:39:13;31.80;99.90
17442;DHT22;8838;50.144;8.176;2023-06-22T13:41:40;31.90;99.90
17442;DHT22;8838;50.144;8.176;2023-06-22T13:44:09;31.80;99.90
17442;DHT22;8838;50.144;8.176;2023-06-22T13:46:37;31.70;99.90
17442;DHT22;8838;50.144;8.176;2023-06-22T13:49:04;31.70;99.90
17442;DHT22;8838;50.144;8.176;2023-06-22T13:51:30;31.80;99.90
17442;DHT22;8838;50.144;8.176;2023-06-22T13:53:58;31.60;99.90
17442;DHT22;8838;50.144;8.176;2023-06-22T13:56:25;31.50;99.90
17442;DHT22;8838;50.144;8.176;2023-06-22T13:59:03;31.30;99.90
17442;DHT22;8838;50.144;8.176;2023-06-22T14:01:35;31.00;99.90
17442;DHT22;8838;50.144;8.176;2023-06-22T14:04:03;30.80;99.90
17442;DHT22;8838;50.144;8.176;2023-06-22T14:06:30;30.60;99.90
17442;DHT22;8838;50.144;8.176;2023-06-22T14:08:56;30.30;99.90
17442;DHT22;8838;50.144;8.176;2023-06-22T14:11:24;30.20;99.90
17442;DHT22;8838;50.144;8.176;2023-06-22T14:13:51;30.00;99.90
17442;DHT22;8838;50.144;8.176;2023-06-22T14:16:18;30.00;99.90
17442;DHT22;8838;50.144;8.176;2023-06-22T14:18:45;29.90;99.90
17442;DHT22;8838;50.144;8.176;2023-06-22T14:21:13;29.90;99.90
17442;DHT22;8838;50.144;8.176;2023-06-22T14:23:40;29.70;99.90
17442;DHT22;8838;50.144;8.176;2023-06-22T14:26:07;29.70;99.90
17442;DHT22;8838;50.144;8.176;2023-06-22T14:28:34;29.60;99.90
17442;DHT22;8838;50.144;8.176;2023-06-22T14:31:00;29.40;99.90
17442;DHT22;8838;50.144;8.176;2023-06-22T14:33:28;29.30;99.90
17442;DHT22;8838;50.144;8.176;2023-06-22T14:35:55;29.20;99.90
17442;DHT22;8838;50.144;8.176;2023-06-22T14:38:23;29.10;99.90
17442;DHT22;8838;50.144;8.176;2023-06-22T14:40:50;28.90;99.90
17442;DHT22;8838;50.144;8.176;2023-06-22T14:43:17;28.80;99.90
17442;DHT22;8838;50.144;8.176;2023-06-22T14:45:44;28.70;99.90
17442;DHT22;8838;50.144;8.176;2023-06-22T14:48:11;28.70;99.90
17442;DHT22;8838;50.144;8.176;2023-06-22T14:50:38;28.70;99.90
17442;DHT22;8838;50.144;8.176;2023-06-22T14:53:05;28.60;99.90
17442;DHT22;8838;50.144;8.176;2023-06-22T14:55:33;28.60;99.90
17442;DHT22;8838;50.144;8.176;2023-06-22T14:58:00;28.60;99.90
17442;DHT22;8838;50.144;8.176;2023-06-22T15:00:27;28.60;99.90
17442;DHT22;8838;50.144;8.176;2023-06-22T15:02:54;28.60;99.90
17442;DHT22;8838;50.144;8.176;2023-06-22T15:05:20;28.60;99.90
17442;DHT22;8838;50.144;8.176;2023-06-22T15:07:49;28.70;99.90
17442;DHT22;8838;50.144;8.176;2023-06-22T15:10:16;28.60;99.90
17442;DHT22;8838;50.144;8.176;2023-06-22T15:12:44;28.50;99.90
17442;DHT22;8838;50.144;8.176;2023-06-22T15:15:11;28.50;99.90
17442;DHT22;8838;50.144;8.176;2023-06-22T15:17:38;28.40;99.90
17442;DHT22;8838;50.144;8.176;2023-06-22T15:20:05;28.40;99.90
17442;DHT22;8838;50.144;8.176;2023-06-22T15:22:32;28.40;99.90
17442;DHT22;8838;50.144;8.176;2023-06-22T15:25:00;28.40;99.90
17442;DHT22;8838;50.144;8.176;2023-06-22T15:27:28;28.30;99.90
17442;DHT22;8838;50.144;8.176;2023-06-22T15:29:56;28.30;99.90
17442;DHT22;8838;50.144;8.176;2023-06-22T15:32:23;28.30;99.90
17442;DHT22;8838;50.144;8.176;2023-06-22T15:34:50;28.30;99.90
17442;DHT22;8838;50.144;8.176;2023-06-22T15:37:19;28.30;99.90
17442;DHT22;8838;50.144;8.176;2023-06-22T15:39:46;28.20;99.90
17442;DHT22;8838;50.144;8.176;2023-06-22T15:42:13;27.30;99.90
17442;DHT22;8838;50.144;8.176;2023-06-22T15:44:39;26.70;99.90
17442;DHT22;8838;50.144;8.176;2023-06-22T15:47:08;26.60;99.90
17442;DHT22;8838;50.144;8.176;2023-06-22T15:49:34;26.50;99.90